Observations for VALLEY RAF, United Kingdom (EGOV)

EGOV 231050Z 21014KT 9999 FEW003 BKN004 OVC005 14/14 Q1012 YLO2 BECMG SCT010 GRN
EGOV 231012Z 20014KT 9000 BR FEW003 SCT004 OVC005 14/14 Q1012 YLO2 BECMG 9999 NSW SCT010 GRN
EGOV 231012Z 20014KT 9000 BR FEW003 SCT004 OVC005 14/14 Q1012 YLO2 BECMG 9999 NSW SCT010 GRN
EGOV 230950Z 20014KT 9000 BR FEW004 OVC005 15/14 Q1012 YLO1 BECMG 9999 NSW SCT010 GRN   
EGOV 230930Z 19013KT 9999 FEW003 OVC005 15/14 Q1012 YLO1 BECMG FEW010 BLU   
EGOV 230930Z 19013KT 9999 FEW003 OVC005 15/14 Q1012 YLO1 BECMG FEW010 BLU
EGOV 230850Z 20015KT 5000 BR FEW002 SCT003 OVC005 14/14 Q1012 YLO2 BECMG 9999 FEW010 BLU
EGOV 230830Z 19015KT 2500 DZ BKN003 OVC007 14/14 Q1012 YLO2 BECMG 5000 SCT010 GRN   
EGOV 230830Z 19015KT 2500 DZ BKN003 OVC007 14/14 Q1012 YLO2 BECMG 5000 SCT010 GRN
EGOV 230818Z 19015KT 5000 -DZ FEW002 BKN004 OVC007 14/14 Q1012 YLO2 TEMPO 3000 DZ SCT002 AMB
EGOV 230818Z 19015KT 5000 -DZ FEW002 BKN004 OVC007 14/14 Q1012 YLO2 TEMPO 3000 DZ SCT002 AMB
EGOV 230750Z 18015KT 2200 DZ BKN002 OVC003 14/14 Q1012 AMB TEMPO 2500 AMB   
EGOV 230721Z 18017KT 2000 DZ BKN002 OVC003 13/13 Q1012 AMB NOSIG
EGOV 230721Z 18017KT 2000 DZ BKN002 OVC003 13/13 Q1012 AMB NOSIG
EGOV 230650Z 17019KT 2500 DZ FEW002 OVC003 13/13 Q1011 YLO2 TEMPO 5000 -DZ YLO2 
EGOV 230625Z 17018KT 2500 DZ SCT002 OVC003 13/13 Q1011 AMB TEMPO 5000 -DZ BKN003 YLO2   
EGOV 230625Z 17018KT 2500 DZ SCT002 OVC003 13/13 Q1011 AMB TEMPO 5000 -DZ BKN003 YLO2
EGOV 230550Z 17018KT 5000 -DZ BKN003 OVC005 13/13 Q1011 REDZ YLO2 TEMPO 3000 DZ BKN002 AMB  
EGOV 230450Z AUTO 18019KT 8000 BR BKN003/// SCT010/// 13/13 Q1012 RERA  
EGOV 230350Z AUTO 19021KT 3500 BR FEW005/// BKN014/// 13/13 Q1012 RERA  
EGOV 230250Z AUTO 20020KT 9999 -RA FEW025/// BKN039/// 13/12 Q1013  
EGOV 230150Z AUTO 19017KT 6000 -RADZ FEW012/// BKN017/// 13/13 Q1013
EGOV 230050Z AUTO 21019KT 9999 FEW012/// BKN038/// 13/12 Q1014  
EGOV 222350Z AUTO 21016KT 9999 BKN036/// 13/12 Q1014 RERA   
EGOV 222250Z AUTO 21016KT 9999 FEW015/// BKN039/// 13/11 Q1015  
EGOV 222150Z AUTO 21015KT 9999 SCT045/// SCT150/// BKN230/// 13/09 Q1015
EGOV 222050Z AUTO 22016KT 9999 BKN048/// BKN160/// 12/09 Q1016  
EGOV 221950Z AUTO 24017KT 9999 FEW023/// SCT049/// BKN160/// 12/08 Q1015
EGOV 221850Z AUTO 25017KT 9999 BKN046/// 13/08 Q1016
EGOV 221750Z AUTO 26013KT 9999 FEW030/// SCT042/// 12/08 Q1015  
EGOV 221650Z AUTO 28011KT 9999 FEW050/// 12/09 Q1015
EGOV 221550Z AUTO 27013KT 9999 FEW023/// BKN050/// 12/09 Q1014 RERA 
EGOV 221450Z AUTO 28018KT 9999 FEW041/// SCT050/// 12/07 Q1014  
EGOV 221350Z AUTO 28013KT 9999 BKN024/// BKN048/// 12/09 Q1014 RERA 
EGOV 221250Z AUTO 27020KT 9999 FEW023/// BKN050/// 12/07 Q1014  
EGOV 221150Z AUTO 27022KT 9999 FEW000/// BKN037/// 12/07 Q1014  
EGOV 221050Z AUTO 28022KT 9999 SCT025/// BKN036/// 12/06 Q1013